createdAt,value
2018-09-14T00:01:35.801Z,11.02
2018-09-14T00:04:04.575Z,10.90
2018-09-14T00:06:33.388Z,11.03
2018-09-14T00:09:02.176Z,11.15
2018-09-14T00:11:31.108Z,10.92
2018-09-14T00:13:59.900Z,10.73
2018-09-14T00:16:28.727Z,10.78
2018-09-14T00:18:57.517Z,11.07
2018-09-14T00:21:31.151Z,10.60
2018-09-14T00:24:00.032Z,10.22
2018-09-14T00:26:28.851Z,10.04
2018-09-14T00:28:57.693Z,10.13
2018-09-14T00:31:26.520Z,10.13
2018-09-14T00:33:55.313Z,10.04
2018-09-14T00:36:24.221Z,10.19
2018-09-14T00:38:53.132Z,10.35
2018-09-14T00:41:21.934Z,10.35
2018-09-14T00:43:50.767Z,10.36
2018-09-14T00:46:19.586Z,10.56
2018-09-14T00:48:48.493Z,10.50
2018-09-14T00:51:17.280Z,10.51
2018-09-14T00:53:46.131Z,10.40
2018-09-14T00:56:14.952Z,10.41
2018-09-14T00:58:43.783Z,10.39
2018-09-14T01:01:12.626Z,10.40
2018-09-14T01:03:41.468Z,10.39
2018-09-14T01:06:10.280Z,10.43
2018-09-14T01:08:39.121Z,10.43
2018-09-14T01:11:07.948Z,10.55
2018-09-14T01:13:36.863Z,10.52
2018-09-14T01:16:05.731Z,10.32
2018-09-14T01:18:34.603Z,10.31
2018-09-14T01:21:03.438Z,10.22
2018-09-14T01:23:32.256Z,10.07
2018-09-14T01:26:01.096Z,10.12
2018-09-14T01:28:29.975Z,10.26
2018-09-14T01:30:59.011Z,10.32
2018-09-14T01:33:27.823Z,9.98
2018-09-14T01:36:02.332Z,10.09
2018-09-14T01:38:31.419Z,10.33
2018-09-14T01:41:00.235Z,10.28
2018-09-14T01:43:29.072Z,10.10
2018-09-14T01:45:57.908Z,10.28
2018-09-14T01:48:26.707Z,10.09
2018-09-14T01:50:55.612Z,10.05
2018-09-14T01:53:24.457Z,10.13
2018-09-14T01:55:53.284Z,10.07
2018-09-14T01:58:22.095Z,9.96
2018-09-14T02:00:50.985Z,9.72
2018-09-14T02:03:19.914Z,9.79
2018-09-14T02:05:48.788Z,9.83
2018-09-14T02:08:17.565Z,9.79
2018-09-14T02:10:46.406Z,9.79
2018-09-14T02:13:15.165Z,9.73
2018-09-14T02:15:44.040Z,9.68
2018-09-14T02:18:12.799Z,9.68
2018-09-14T02:20:41.620Z,9.68
2018-09-14T02:23:10.404Z,9.51
2018-09-14T02:25:39.321Z,9.49
2018-09-14T02:28:08.131Z,9.08
2018-09-14T02:30:37.012Z,8.64
2018-09-14T02:33:05.859Z,9.01
2018-09-14T02:35:34.669Z,9.21
2018-09-14T02:38:03.493Z,9.17
2018-09-14T02:40:32.360Z,9.22
2018-09-14T02:43:01.208Z,9.16
2018-09-14T02:45:30.004Z,9.23
2018-09-14T02:47:58.858Z,9.21
2018-09-14T02:50:27.651Z,9.38
2018-09-14T02:52:56.576Z,9.57
2018-09-14T02:55:25.450Z,9.42
2018-09-14T02:57:54.276Z,9.12
2018-09-14T03:00:23.090Z,8.79
2018-09-14T03:02:51.884Z,8.66
2018-09-14T03:05:20.698Z,8.78
2018-09-14T03:07:49.535Z,8.69
2018-09-14T03:10:18.334Z,8.98
2018-09-14T03:12:47.147Z,8.80
2018-09-14T03:15:15.933Z,8.75
2018-09-14T03:17:44.811Z,8.62
2018-09-14T03:20:13.577Z,8.63
2018-09-14T03:22:42.381Z,8.69
2018-09-14T03:25:11.179Z,8.71
2018-09-14T03:27:39.999Z,8.75
2018-09-14T03:30:08.967Z,8.91
2018-09-14T03:32:37.807Z,8.86
2018-09-14T03:35:06.607Z,8.75
2018-09-14T03:37:35.385Z,8.83
2018-09-14T03:40:04.377Z,8.99
2018-09-14T03:42:33.311Z,8.83
2018-09-14T03:45:02.507Z,8.69
2018-09-14T03:47:31.337Z,8.85
2018-09-14T03:50:00.159Z,8.86
2018-09-14T03:52:28.955Z,8.84
2018-09-14T03:54:57.828Z,8.72
2018-09-14T03:57:26.992Z,8.72
2018-09-14T03:59:55.723Z,8.88
2018-09-14T04:02:24.488Z,8.15
2018-09-14T04:04:53.270Z,7.96
2018-09-14T04:07:22.094Z,8.02
2018-09-14T04:09:50.924Z,8.32
2018-09-14T04:12:19.744Z,7.91
2018-09-14T04:14:48.577Z,7.79
2018-09-14T04:17:17.389Z,8.06
2018-09-14T04:19:46.383Z,8.10
2018-09-14T04:22:15.147Z,8.22
2018-09-14T04:24:43.963Z,7.85
2018-09-14T04:27:12.744Z,7.84
2018-09-14T04:29:41.548Z,7.60
2018-09-14T04:32:10.398Z,7.11
2018-09-14T04:34:39.212Z,7.09
2018-09-14T04:37:08.158Z,6.91
2018-09-14T04:39:36.930Z,6.86
2018-09-14T04:42:05.813Z,6.81
2018-09-14T04:44:34.664Z,6.79
2018-09-14T04:47:03.524Z,6.96
2018-09-14T04:49:32.535Z,7.18
2018-09-14T04:52:01.450Z,7.36
2018-09-14T04:54:30.221Z,7.46
2018-09-14T04:56:59.103Z,7.54
2018-09-14T04:59:27.871Z,7.54
2018-09-14T05:01:56.678Z,7.68
2018-09-14T05:04:25.460Z,7.55
2018-09-14T05:06:54.322Z,7.73
2018-09-14T05:09:23.135Z,7.55
2018-09-14T05:11:51.990Z,7.76
2018-09-14T05:14:20.804Z,7.91
2018-09-14T05:16:49.854Z,8.11
2018-09-14T05:19:18.652Z,8.29
2018-09-14T05:21:47.900Z,7.91
2018-09-14T05:24:16.737Z,8.44
2018-09-14T05:26:45.452Z,8.43
2018-09-14T05:29:14.271Z,8.54
2018-09-14T05:31:43.041Z,8.32
2018-09-14T05:34:11.884Z,8.46
2018-09-14T05:36:40.678Z,8.50
2018-09-14T05:39:10.040Z,8.40
2018-09-14T05:41:38.816Z,8.49
2018-09-14T05:44:07.690Z,8.54
2018-09-14T05:46:36.515Z,8.40
2018-09-14T05:49:05.431Z,8.52
2018-09-14T05:51:34.542Z,8.28
2018-09-14T05:54:03.386Z,8.52
2018-09-14T05:56:32.198Z,8.76
2018-09-14T05:59:01.096Z,8.51
2018-09-14T06:01:29.978Z,8.43
2018-09-14T06:03:58.771Z,8.41
2018-09-14T06:06:27.565Z,8.37
2018-09-14T06:08:56.404Z,8.47
2018-09-14T06:11:25.448Z,8.46
2018-09-14T06:13:54.283Z,8.80
2018-09-14T06:16:23.072Z,8.80
2018-09-14T06:18:51.936Z,8.58
2018-09-14T06:21:20.725Z,8.77
2018-09-14T06:23:49.618Z,8.81
2018-09-14T06:26:18.425Z,8.98
2018-09-14T06:28:47.478Z,8.97
2018-09-14T06:31:16.435Z,9.22
2018-09-14T06:33:51.793Z,9.45
2018-09-14T06:36:20.666Z,9.70
2018-09-14T06:38:49.483Z,9.60
2018-09-14T06:41:18.392Z,9.66
2018-09-14T06:43:47.230Z,9.88
2018-09-14T06:46:16.051Z,10.04
2018-09-14T06:48:44.884Z,9.96
2018-09-14T06:51:13.704Z,10.05
2018-09-14T06:53:42.492Z,10.25
2018-09-14T06:56:11.296Z,10.58
2018-09-14T06:58:40.275Z,10.61
2018-09-14T07:01:09.152Z,10.72
2018-09-14T07:03:37.912Z,10.80
2018-09-14T07:06:06.743Z,10.99
2018-09-14T07:08:35.496Z,11.11
2018-09-14T07:11:04.359Z,11.39
2018-09-14T07:13:34.170Z,11.44
2018-09-14T07:16:03.108Z,11.41
2018-09-14T07:18:31.877Z,11.68
2018-09-14T07:21:00.708Z,12.23
2018-09-14T07:23:29.467Z,12.29
2018-09-14T07:25:58.355Z,12.75
2018-09-14T07:28:27.201Z,13.25
2018-09-14T07:30:56.032Z,13.55
2018-09-14T07:33:24.846Z,12.82
2018-09-14T07:35:53.604Z,13.27
2018-09-14T07:38:22.515Z,13.78
2018-09-14T07:40:51.514Z,13.93
2018-09-14T07:43:20.351Z,14.50
2018-09-14T07:45:49.195Z,14.63
2018-09-14T07:48:18.094Z,14.71
2018-09-14T07:50:46.892Z,14.81
2018-09-14T07:53:15.708Z,15.03
2018-09-14T07:55:44.463Z,15.18
2018-09-14T07:58:13.563Z,15.54
2018-09-14T08:00:42.408Z,14.95
2018-09-14T08:03:11.296Z,15.69
2018-09-14T08:05:40.203Z,16.01
2018-09-14T08:08:09.019Z,16.06
2018-09-14T08:10:37.931Z,15.88
2018-09-14T08:13:07.226Z,16.14
2018-09-14T08:15:36.069Z,16.41
2018-09-14T08:18:05.366Z,16.54
2018-09-14T08:20:34.128Z,16.67
2018-09-14T08:23:02.923Z,16.85
2018-09-14T08:25:31.921Z,16.66
2018-09-14T08:28:00.767Z,16.69
2018-09-14T08:30:29.612Z,16.75
2018-09-14T08:32:58.385Z,16.71
2018-09-14T08:35:27.245Z,17.20
2018-09-14T08:37:56.020Z,17.30
2018-09-14T08:40:24.996Z,17.37
2018-09-14T08:42:53.828Z,17.35
2018-09-14T08:45:22.700Z,17.39
2018-09-14T08:47:51.556Z,17.16
2018-09-14T08:50:20.328Z,17.46
2018-09-14T08:52:49.317Z,17.51
2018-09-14T08:55:18.181Z,17.52
2018-09-14T08:57:46.949Z,17.75
2018-09-14T09:00:20.507Z,17.93
2018-09-14T09:02:50.048Z,17.76
2018-09-14T09:05:18.944Z,17.66
2018-09-14T09:07:47.862Z,17.98
2018-09-14T09:10:17.152Z,17.94
2018-09-14T09:12:46.072Z,18.03
2018-09-14T09:15:14.992Z,18.10
2018-09-14T09:17:44.042Z,17.96
2018-09-14T09:20:13.069Z,18.08
2018-09-14T09:22:41.845Z,18.10
2018-09-14T09:25:10.971Z,18.27
2018-09-14T09:27:39.844Z,18.30
2018-09-14T09:30:08.775Z,18.03
2018-09-14T09:32:37.660Z,18.13
2018-09-14T09:35:06.540Z,18.03
2018-09-14T09:37:35.770Z,18.14
2018-09-14T09:40:04.663Z,18.53
2018-09-14T09:42:34.172Z,18.04
2018-09-14T09:45:03.003Z,17.90
2018-09-14T09:47:31.843Z,18.25
2018-09-14T09:50:00.639Z,18.40
2018-09-14T09:52:29.489Z,18.37
2018-09-14T09:54:58.349Z,18.30
2018-09-14T09:57:27.172Z,18.34
2018-09-14T09:59:55.948Z,18.42
2018-09-14T10:02:33.191Z,18.52
2018-09-14T10:05:07.585Z,18.08
2018-09-14T10:07:36.536Z,18.16
2018-09-14T10:10:05.405Z,18.37
2018-09-14T10:12:34.618Z,18.51
2018-09-14T10:15:03.585Z,18.54
2018-09-14T10:17:32.406Z,18.54
2018-09-14T10:20:01.389Z,18.69
2018-09-14T10:22:30.184Z,18.63
2018-09-14T10:24:59.011Z,18.78
2018-09-14T10:27:27.851Z,18.88
2018-09-14T10:29:56.649Z,18.90
2018-09-14T10:32:25.412Z,18.75
2018-09-14T10:34:54.236Z,18.75
2018-09-14T10:37:23.075Z,18.74
2018-09-14T10:39:52.181Z,18.64
2018-09-14T10:42:21.046Z,18.73
2018-09-14T10:44:49.884Z,18.50
2018-09-14T10:47:18.678Z,18.46
2018-09-14T10:49:47.816Z,18.15
2018-09-14T10:52:16.672Z,18.70
2018-09-14T10:54:45.569Z,18.93
2018-09-14T10:57:14.353Z,18.85
2018-09-14T10:59:43.217Z,18.72
2018-09-14T11:02:12.002Z,19.04
2018-09-14T11:04:40.851Z,19.10
2018-09-14T11:07:09.723Z,18.91
2018-09-14T11:09:38.452Z,18.75
2018-09-14T11:12:07.371Z,18.61
2018-09-14T11:14:36.171Z,18.55
2018-09-14T11:17:05.061Z,18.68
2018-09-14T11:19:33.951Z,18.81
2018-09-14T11:22:02.804Z,19.02
2018-09-14T11:24:31.613Z,19.24
2018-09-14T11:27:00.444Z,19.32
2018-09-14T11:29:29.292Z,19.27
2018-09-14T11:31:58.106Z,19.31
2018-09-14T11:34:26.897Z,19.25
2018-09-14T11:36:55.750Z,19.55
2018-09-14T11:39:24.504Z,19.63
2018-09-14T11:41:53.413Z,19.79
2018-09-14T11:44:22.192Z,19.65
2018-09-14T11:46:51.334Z,19.71
2018-09-14T11:49:20.152Z,19.83
2018-09-14T11:51:49.007Z,19.38
2018-09-14T11:54:17.960Z,19.66
2018-09-14T11:56:46.663Z,19.36
2018-09-14T11:59:15.784Z,19.74
2018-09-14T12:01:44.572Z,19.94
2018-09-14T12:04:13.423Z,19.39
2018-09-14T12:06:42.254Z,19.05
2018-09-14T12:09:12.129Z,19.77
2018-09-14T12:11:41.372Z,19.69
2018-09-14T12:14:10.707Z,19.85
2018-09-14T12:16:39.455Z,20.02
2018-09-14T12:19:08.366Z,19.93
2018-09-14T12:21:37.145Z,19.99
2018-09-14T12:24:05.954Z,20.11
2018-09-14T12:26:34.711Z,20.16
2018-09-14T12:29:03.566Z,20.28
2018-09-14T12:31:32.512Z,20.00
2018-09-14T12:34:01.371Z,20.16
2018-09-14T12:36:30.176Z,20.26
2018-09-14T12:38:59.008Z,20.25
2018-09-14T12:41:27.814Z,20.37
2018-09-14T12:43:56.618Z,20.53
2018-09-14T12:46:25.719Z,20.15
2018-09-14T12:48:54.489Z,20.35
2018-09-14T12:51:23.396Z,20.45
2018-09-14T12:53:52.164Z,20.31
2018-09-14T12:56:21.117Z,20.26
2018-09-14T12:58:49.885Z,20.08
2018-09-14T13:01:18.756Z,20.42
2018-09-14T13:03:47.524Z,20.54
2018-09-14T13:06:16.353Z,20.28
2018-09-14T13:08:45.187Z,20.40
2018-09-14T13:11:14.052Z,20.37
2018-09-14T13:13:42.840Z,20.56
2018-09-14T13:16:11.672Z,20.50
2018-09-14T13:18:40.482Z,20.12
2018-09-14T13:21:09.480Z,20.49
2018-09-14T13:23:38.551Z,20.56
2018-09-14T13:26:07.388Z,20.33
2018-09-14T13:28:36.191Z,20.50
2018-09-14T13:31:05.032Z,20.71
2018-09-14T13:33:33.863Z,20.68
2018-09-14T13:36:02.694Z,20.83
2018-09-14T13:38:31.574Z,20.95
2018-09-14T13:41:00.393Z,20.83
2018-09-14T13:43:29.206Z,20.99
2018-09-14T13:45:58.040Z,20.76
2018-09-14T13:48:26.860Z,20.88
2018-09-14T13:50:55.623Z,20.85
2018-09-14T13:53:24.448Z,21.00
2018-09-14T13:55:53.216Z,20.77
2018-09-14T13:58:22.115Z,20.79
2018-09-14T14:00:50.906Z,21.01
2018-09-14T14:03:19.707Z,21.15
2018-09-14T14:05:48.479Z,20.92
2018-09-14T14:08:17.385Z,21.09
2018-09-14T14:10:46.571Z,21.00
2018-09-14T14:13:15.432Z,20.92
2018-09-14T14:15:44.231Z,21.00
2018-09-14T14:18:13.048Z,21.19
2018-09-14T14:20:42.192Z,21.03
2018-09-14T14:23:11.121Z,21.13
2018-09-14T14:25:39.863Z,21.09
2018-09-14T14:28:09.043Z,21.13
2018-09-14T14:30:37.841Z,21.30
2018-09-14T14:33:06.994Z,21.14
2018-09-14T14:35:35.847Z,20.65
2018-09-14T14:38:04.715Z,20.06
2018-09-14T14:40:33.856Z,20.43
2018-09-14T14:43:02.714Z,20.53
2018-09-14T14:45:31.472Z,20.64
2018-09-14T14:48:00.400Z,20.67
2018-09-14T14:50:29.252Z,20.58
2018-09-14T14:52:58.040Z,20.53
2018-09-14T14:55:26.873Z,20.58
2018-09-14T14:57:55.713Z,20.32
2018-09-14T15:00:24.601Z,20.31
2018-09-14T15:02:53.367Z,20.21
2018-09-14T15:05:22.455Z,20.26
2018-09-14T15:07:51.236Z,20.31
2018-09-14T15:10:20.068Z,20.52
2018-09-14T15:12:48.969Z,20.81
2018-09-14T15:15:17.784Z,20.81
2018-09-14T15:17:46.580Z,20.94
2018-09-14T15:20:15.413Z,20.60
2018-09-14T15:22:44.183Z,20.73
2018-09-14T15:25:13.049Z,20.59
2018-09-14T15:27:41.850Z,20.28
2018-09-14T15:30:10.701Z,20.15
2018-09-14T15:32:39.763Z,19.93
2018-09-14T15:35:08.743Z,20.19
2018-09-14T15:37:37.560Z,20.25
2018-09-14T15:40:06.609Z,20.18
2018-09-14T15:42:35.449Z,20.07
2018-09-14T15:45:04.743Z,19.94
2018-09-14T15:47:33.539Z,19.63
2018-09-14T15:50:02.432Z,19.48
2018-09-14T15:52:31.291Z,19.34
2018-09-14T15:55:00.072Z,19.32
2018-09-14T15:57:28.897Z,19.20
2018-09-14T15:59:57.705Z,19.30
2018-09-14T16:02:26.607Z,19.42
2018-09-14T16:04:55.416Z,19.40
2018-09-14T16:07:24.305Z,19.25
2018-09-14T16:09:53.123Z,19.26
2018-09-14T16:12:22.002Z,19.23
2018-09-14T16:14:50.911Z,19.05
2018-09-14T16:17:20.023Z,19.22
2018-09-14T16:19:48.810Z,18.89
2018-09-14T16:22:17.954Z,18.82
2018-09-14T16:24:46.791Z,18.89
2018-09-14T16:27:15.714Z,18.92
2018-09-14T16:29:44.483Z,18.95
2018-09-14T16:32:13.287Z,18.81
2018-09-14T16:34:43.665Z,18.63
2018-09-14T16:37:12.554Z,18.75
2018-09-14T16:39:41.596Z,18.61
2018-09-14T16:42:10.387Z,18.59
2018-09-14T16:44:40.894Z,18.65
2018-09-14T16:47:10.271Z,18.43
2018-09-14T16:49:39.520Z,18.29
2018-09-14T16:52:08.335Z,18.33
2018-09-14T16:54:37.143Z,18.40
2018-09-14T16:57:05.976Z,18.15
2018-09-14T16:59:34.807Z,18.14
2018-09-14T17:02:03.640Z,17.97
2018-09-14T17:04:32.520Z,17.87
2018-09-14T17:07:01.356Z,17.82
2018-09-14T17:09:30.243Z,17.76
2018-09-14T17:11:59.112Z,17.73
2018-09-14T17:14:27.992Z,17.60
2018-09-14T17:16:56.962Z,17.55
2018-09-14T17:19:25.791Z,17.46
2018-09-14T17:21:55.311Z,17.44
2018-09-14T17:24:24.220Z,17.40
2018-09-14T17:26:52.989Z,17.83
2018-09-14T17:29:21.834Z,17.82
2018-09-14T17:31:50.667Z,17.32
2018-09-14T17:34:19.505Z,17.30
2018-09-14T17:36:48.856Z,17.09
2018-09-14T17:39:17.626Z,17.02
2018-09-14T17:41:46.856Z,17.00
2018-09-14T17:44:15.732Z,16.97
2018-09-14T17:46:44.582Z,16.93
2018-09-14T17:49:13.358Z,16.92
2018-09-14T17:51:42.232Z,17.09
2018-09-14T17:54:11.036Z,16.91
2018-09-14T17:56:40.730Z,16.93
2018-09-14T17:59:09.468Z,16.79
2018-09-14T18:01:38.363Z,16.75
2018-09-14T18:04:07.622Z,16.72
2018-09-14T18:06:36.503Z,16.70
2018-09-14T18:09:09.211Z,16.64
2018-09-14T18:11:38.694Z,16.62
2018-09-14T18:14:07.588Z,16.57
2018-09-14T18:16:36.783Z,16.56
2018-09-14T18:19:05.946Z,16.54
2018-09-14T18:21:34.896Z,16.51
2018-09-14T18:24:03.721Z,16.44
2018-09-14T18:26:32.559Z,16.40
2018-09-14T18:29:01.340Z,16.28
2018-09-14T18:31:30.227Z,16.32
2018-09-14T18:33:59.053Z,16.30
2018-09-14T18:36:27.815Z,16.29
2018-09-14T18:38:56.613Z,16.17
2018-09-14T18:41:25.383Z,16.14
2018-09-14T18:43:54.234Z,16.16
2018-09-14T18:46:23.054Z,16.11
2018-09-14T18:48:51.865Z,16.10
2018-09-14T18:51:20.957Z,16.04
2018-09-14T18:53:49.764Z,15.99
2018-09-14T18:56:18.610Z,15.87
2018-09-14T18:58:47.444Z,15.83
2018-09-14T19:01:16.191Z,15.75
2018-09-14T19:03:45.029Z,15.85
2018-09-14T19:06:13.840Z,15.82
2018-09-14T19:08:42.747Z,15.82
2018-09-14T19:11:11.563Z,15.80
2018-09-14T19:13:40.420Z,15.79
2018-09-14T19:16:09.200Z,15.78
2018-09-14T19:18:38.035Z,15.71
2018-09-14T19:21:06.936Z,15.59
2018-09-14T19:23:35.838Z,15.65
2018-09-14T19:26:04.661Z,15.72
2018-09-14T19:28:33.591Z,15.74
2018-09-14T19:31:02.771Z,15.68
2018-09-14T19:33:31.849Z,15.70
2018-09-14T19:36:00.715Z,15.52
2018-09-14T19:38:29.627Z,15.49
2018-09-14T19:40:58.415Z,15.42
2018-09-14T19:43:27.294Z,15.39
2018-09-14T19:45:56.168Z,15.39
2018-09-14T19:48:24.965Z,15.24
2018-09-14T19:50:53.810Z,15.26
2018-09-14T19:53:22.587Z,15.37
2018-09-14T19:55:51.432Z,15.39
2018-09-14T19:58:20.272Z,15.45
2018-09-14T20:00:49.251Z,15.40
2018-09-14T20:03:18.063Z,15.42
2018-09-14T20:05:46.864Z,15.33
2018-09-14T20:08:15.644Z,15.22
2018-09-14T20:10:44.536Z,15.21
2018-09-14T20:13:13.329Z,15.23
2018-09-14T20:15:47.135Z,15.27
2018-09-14T20:18:15.966Z,15.61
2018-09-14T20:20:45.084Z,15.60
2018-09-14T20:23:14.191Z,15.64
2018-09-14T20:25:43.024Z,15.56
2018-09-14T20:28:12.123Z,15.60
2018-09-14T20:30:41.035Z,15.67
2018-09-14T20:33:10.109Z,15.57
2018-09-14T20:35:39.052Z,15.43
2018-09-14T20:38:07.959Z,15.57
2018-09-14T20:40:36.814Z,15.52
2018-09-14T20:43:05.646Z,15.59
2018-09-14T20:45:34.395Z,15.59
2018-09-14T20:48:03.267Z,15.58
2018-09-14T20:50:32.063Z,15.46
2018-09-14T20:53:00.911Z,15.53
2018-09-14T20:55:29.694Z,15.32
2018-09-14T20:57:58.732Z,15.43
2018-09-14T21:00:27.608Z,15.44
2018-09-14T21:02:56.448Z,15.36
2018-09-14T21:05:25.227Z,15.17
2018-09-14T21:07:54.134Z,15.11
2018-09-14T21:10:22.886Z,15.28
2018-09-14T21:12:51.830Z,15.36
2018-09-14T21:15:20.628Z,15.42
2018-09-14T21:17:49.452Z,15.17
2018-09-14T21:20:18.268Z,15.31
2018-09-14T21:22:47.133Z,15.33
2018-09-14T21:25:15.904Z,15.20
2018-09-14T21:27:44.727Z,15.16
2018-09-14T21:30:13.474Z,15.21
2018-09-14T21:32:42.267Z,15.29
2018-09-14T21:35:11.024Z,15.26
2018-09-14T21:37:39.912Z,15.35
2018-09-14T21:40:08.719Z,15.32
2018-09-14T21:42:37.548Z,15.35
2018-09-14T21:45:06.427Z,15.38
2018-09-14T21:47:35.214Z,15.46
2018-09-14T21:50:04.200Z,15.30
2018-09-14T21:52:32.970Z,15.33
2018-09-14T21:55:01.924Z,15.30
2018-09-14T21:57:30.811Z,15.39
2018-09-14T22:00:04.211Z,15.31
2018-09-14T22:02:33.124Z,15.31
2018-09-14T22:05:01.949Z,15.22
2018-09-14T22:07:30.718Z,15.18
2018-09-14T22:09:59.540Z,15.50
2018-09-14T22:12:28.355Z,15.39
2018-09-14T22:14:57.233Z,15.36
2018-09-14T22:17:26.003Z,15.37
2018-09-14T22:19:54.790Z,15.35
2018-09-14T22:22:23.555Z,15.39
2018-09-14T22:24:52.408Z,15.35
2018-09-14T22:27:21.492Z,15.56
2018-09-14T22:29:50.333Z,15.46
2018-09-14T22:32:19.090Z,15.36
2018-09-14T22:34:47.911Z,15.25
2018-09-14T22:37:16.685Z,15.32
2018-09-14T22:39:45.628Z,15.24
2018-09-14T22:42:14.384Z,15.23
2018-09-14T22:44:43.155Z,15.18
2018-09-14T22:47:11.995Z,15.21
2018-09-14T22:49:40.788Z,15.00
2018-09-14T22:52:09.749Z,14.95
2018-09-14T22:54:38.512Z,14.82
2018-09-14T22:57:07.346Z,15.05
2018-09-14T22:59:36.107Z,15.01
2018-09-14T23:02:04.948Z,15.01
2018-09-14T23:04:33.787Z,14.93
2018-09-14T23:07:02.616Z,14.90
2018-09-14T23:09:31.378Z,14.97
2018-09-14T23:12:00.217Z,14.94
2018-09-14T23:14:29.361Z,14.92
2018-09-14T23:16:58.253Z,14.90
2018-09-14T23:19:27.084Z,14.83
2018-09-14T23:21:55.900Z,14.86
2018-09-14T23:24:24.668Z,14.80
2018-09-14T23:26:53.575Z,14.83
2018-09-14T23:29:22.417Z,14.75
2018-09-14T23:31:51.204Z,14.83
2018-09-14T23:34:20.020Z,14.88
2018-09-14T23:36:48.799Z,14.73
2018-09-14T23:39:17.660Z,14.84
2018-09-14T23:41:46.491Z,14.85
2018-09-14T23:44:15.278Z,14.76
2018-09-14T23:46:44.059Z,14.59
2018-09-14T23:49:13.207Z,14.60
2018-09-14T23:51:41.996Z,14.48
2018-09-14T23:54:10.862Z,14.60
2018-09-14T23:56:39.615Z,14.48
2018-09-14T23:59:08.489Z,14.56
